Time;durP1;ratioP1;P1;durP2;ratioP2;P2;SDS_P1;SDS_P2;PMS_P1;PMS_P2;Temp;Humidity;BMP_temperature;BMP_pressure;BME280_temperature;BME280_humidity;BME280_pressure;Samples;Min_cycle;Max_cycle;Signal;HPM_P1;HPM_P2
2023/01/05 00:01:24;;;;;;;3.47;0.82;;;9.90;99.90;;;;;;4442026;32;20052;-67
2023/01/05 00:03:50;;;;;;;0.52;0.52;;;9.80;99.90;;;;;;4440619;32;20515;-68
2023/01/05 00:06:17;;;;;;;3.65;1.50;;;9.90;99.90;;;;;;4440615;32;20116;-68
2023/01/05 00:08:43;;;;;;;0.30;0.30;;;9.80;99.90;;;;;;4443129;32;20671;-68
2023/01/05 00:22:33;;;;;;;0.30;0.30;;;9.80;99.90;;;;;;4440656;32;20564;-68
2023/01/05 00:25:01;;;;;;;22.92;0.70;;;9.70;99.90;;;;;;4443084;32;20101;-68
2023/01/05 00:27:27;;;;;;;0.37;0.37;;;9.70;99.90;;;;;;4438587;32;20089;-68
2023/01/05 00:29:52;;;;;;;0.30;0.30;;;9.80;99.90;;;;;;4438275;32;20954;-68
2023/01/05 00:32:18;;;;;;;2.33;0.80;;;9.80;99.90;;;;;;4438107;32;20671;-68
2023/01/05 00:34:44;;;;;;;0.70;0.60;;;9.80;99.90;;;;;;4443410;32;20077;-68
2023/01/05 00:37:09;;;;;;;0.40;0.40;;;9.80;99.90;;;;;;4442165;32;20084;-68
2023/01/05 00:39:35;;;;;;;0.30;0.30;;;9.80;99.90;;;;;;4437152;32;20100;-68
2023/01/05 00:42:00;;;;;;;0.50;0.50;;;9.80;99.90;;;;;;4426576;32;20488;-68
2023/01/05 00:44:26;;;;;;;0.85;0.45;;;9.80;99.90;;;;;;4426079;32;20168;-68
2023/01/05 00:46:51;;;;;;;0.22;0.22;;;9.80;99.90;;;;;;4441816;32;20442;-68
2023/01/05 00:49:16;;;;;;;1.00;0.68;;;9.80;99.90;;;;;;4442273;32;20084;-69
2023/01/05 00:51:42;;;;;;;0.30;0.30;;;9.80;99.90;;;;;;4441756;32;20102;-68
2023/01/05 00:54:07;;;;;;;1.45;1.20;;;9.90;99.90;;;;;;4444284;32;20081;-68
2023/01/05 00:56:33;;;;;;;2.20;1.20;;;9.90;99.90;;;;;;4443184;32;20273;-69
2023/01/05 00:58:58;;;;;;;0.30;0.30;;;9.90;99.90;;;;;;4440658;32;20073;-68
2023/01/05 01:01:24;;;;;;;0.30;0.30;;;10.00;99.90;;;;;;4441344;32;20089;-68
2023/01/05 01:03:49;;;;;;;1.55;0.88;;;9.90;99.90;;;;;;4443039;32;20127;-68
2023/01/05 01:06:15;;;;;;;0.40;0.40;;;9.90;99.90;;;;;;4439572;32;20081;-68
2023/01/05 01:08:41;;;;;;;0.30;0.30;;;9.90;99.90;;;;;;4442381;32;20888;-68
2023/01/05 01:11:08;;;;;;;1.17;1.02;;;10.00;99.90;;;;;;4432124;32;20140;-67
2023/01/05 01:13:34;;;;;;;7.57;0.73;;;10.00;99.90;;;;;;4426211;32;20084;-68
2023/01/05 01:16:08;;;;;;;0.30;0.30;;;10.00;99.90;;;;;;4437754;32;20103;-68
2023/01/05 01:18:34;;;;;;;0.50;0.50;;;10.00;99.90;;;;;;4442621;32;20069;-69
2023/01/05 01:21:00;;;;;;;0.40;0.40;;;10.00;99.90;;;;;;4444845;32;20081;-68
2023/01/05 01:23:26;;;;;;;0.45;0.45;;;10.00;99.90;;;;;;4446585;32;20105;-68
2023/01/05 01:25:52;;;;;;;0.40;0.40;;;10.00;99.90;;;;;;4444938;32;20147;-68
2023/01/05 01:28:17;;;;;;;21.80;0.70;;;10.10;99.90;;;;;;4444705;32;20100;-68
2023/01/05 01:30:43;;;;;;;1.02;0.60;;;10.00;99.90;;;;;;4447775;32;20096;-68
2023/01/05 01:33:08;;;;;;;0.30;0.30;;;10.00;99.90;;;;;;4442022;32;20147;-68
2023/01/05 01:35:36;;;;;;;0.40;0.40;;;10.00;99.90;;;;;;4442090;32;20081;-68
2023/01/05 01:38:01;;;;;;;0.43;0.43;;;10.10;99.90;;;;;;4443611;32;20093;-68
2023/01/05 01:40:27;;;;;;;0.40;0.40;;;10.00;99.90;;;;;;4435738;32;20818;-68
2023/01/05 01:42:53;;;;;;;1.45;0.47;;;10.10;99.90;;;;;;4426870;32;21015;-68
2023/01/05 01:45:21;;;;;;;3.83;1.00;;;10.10;99.90;;;;;;4435638;32;20138;-68
2023/01/05 01:47:55;;;;;;;11.32;0.68;;;10.10;99.90;;;;;;4444919;32;20135;-68
2023/01/05 01:50:28;;;;;;;0.30;0.30;;;10.20;99.90;;;;;;4442518;32;20132;-68
2023/01/05 01:52:58;;;;;;;0.30;0.30;;;10.20;99.90;;;;;;4444048;32;20097;-68
2023/01/05 01:55:25;;;;;;;0.30;0.30;;;10.10;99.90;;;;;;4442003;32;20142;-68
2023/01/05 01:57:51;;;;;;;1.15;1.10;;;10.10;99.90;;;;;;4443580;32;20083;-68
2023/01/05 02:00:18;;;;;;;1.65;0.60;;;10.10;99.90;;;;;;4444153;32;20081;-68
2023/01/05 02:02:47;;;;;;;0.30;0.30;;;10.10;99.90;;;;;;4444478;32;20489;-68
2023/01/05 02:05:15;;;;;;;0.30;0.30;;;10.10;99.90;;;;;;4445783;32;20545;-67
2023/01/05 02:07:46;;;;;;;0.35;0.35;;;10.10;99.90;;;;;;4443676;32;20473;-68
2023/01/05 02:10:14;;;;;;;2.97;1.02;;;10.10;99.90;;;;;;4438620;32;20070;-67
2023/01/05 02:12:49;;;;;;;0.70;0.70;;;10.10;99.90;;;;;;4429858;32;20060;-67
2023/01/05 02:15:25;;;;;;;0.40;0.40;;;10.10;99.90;;;;;;4433973;32;20454;-69
2023/01/05 02:18:00;;;;;;;0.40;0.40;;;10.10;99.90;;;;;;4444899;32;20080;-68
2023/01/05 02:20:32;;;;;;;2.37;0.50;;;10.10;99.90;;;;;;4446076;32;20130;-68
2023/01/05 02:23:32;;;;;;;2.30;0.98;;;10.20;99.90;;;;;;4448371;32;20099;-67
2023/01/05 02:26:38;;;;;;;0.40;0.40;;;10.10;99.90;;;;;;4446410;32;20085;-68
2023/01/05 02:29:33;;;;;;;0.32;0.32;;;10.10;99.90;;;;;;4433290;32;20069;-67
2023/01/05 02:32:10;;;;;;;1.23;1.10;;;10.00;99.90;;;;;;4443521;32;20594;-68
2023/01/05 02:34:51;;;;;;;2.50;0.85;;;10.00;99.90;;;;;;4449800;32;20120;-68
2023/01/05 02:37:27;;;;;;;2.25;1.50;;;10.00;99.90;;;;;;4441906;32;20081;-68
2023/01/05 02:39:58;;;;;;;0.40;0.40;;;10.10;99.90;;;;;;4443526;32;20108;-67
2023/01/05 02:42:27;;;;;;;4.40;0.50;;;10.10;99.90;;;;;;4430181;32;20081;-67
2023/01/05 02:44:52;;;;;;;0.43;0.43;;;10.10;99.90;;;;;;4430576;32;20089;-68
2023/01/05 02:47:28;;;;;;;3.20;0.45;;;10.10;99.90;;;;;;4444311;32;20085;-68
2023/01/05 02:49:58;;;;;;;0.50;0.50;;;10.10;99.90;;;;;;4447268;32;20081;-68
2023/01/05 02:52:24;;;;;;;0.60;0.60;;;10.10;99.90;;;;;;4448634;32;20186;-68
2023/01/05 02:54:56;;;;;;;0.98;0.35;;;10.10;99.90;;;;;;4444321;32;20089;-68
2023/01/05 02:57:45;;;;;;;0.30;0.30;;;10.10;99.90;;;;;;4441835;32;20104;-68
2023/01/05 03:00:14;;;;;;;0.37;0.37;;;10.10;99.90;;;;;;4442907;32;20964;-68
2023/01/05 03:02:40;;;;;;;0.50;0.50;;;10.10;99.90;;;;;;4444156;32;20076;-68
2023/01/05 03:05:10;;;;;;;3.15;0.65;;;10.10;99.90;;;;;;4443972;32;20161;-68
2023/01/05 03:07:40;;;;;;;0.80;0.80;;;10.00;99.90;;;;;;4443963;32;20074;-68
2023/01/05 03:13:56;;;;;;;2.15;0.80;;;10.10;99.90;;;;;;4426443;32;20077;-67
2023/01/05 03:15:44;;;;;;;0.52;0.52;;;10.10;99.90;;;;;;4435174;32;20088;-68
2023/01/05 03:18:13;;;;;;;1.73;0.80;;;10.00;99.90;;;;;;4443094;32;20086;-68
2023/01/05 03:20:42;;;;;;;0.40;0.40;;;10.00;99.90;;;;;;4447921;32;20147;-68
2023/01/05 03:35:34;;;;;;;1.80;0.82;;;10.10;99.90;;;;;;4443732;32;20112;-68
2023/01/05 03:37:27;;;;;;;0.37;0.37;;;10.00;99.90;;;;;;4442113;32;20100;-68
2023/01/05 03:39:53;;;;;;;0.50;0.50;;;10.10;99.90;;;;;;4442159;32;20077;-67
2023/01/05 03:42:19;;;;;;;0.20;0.20;;;10.10;99.90;;;;;;4431944;32;20544;-67
2023/01/05 03:44:47;;;;;;;1.00;1.00;;;10.30;99.90;;;;;;4429716;32;20077;-68
2023/01/05 03:47:13;;;;;;;10.85;0.82;;;10.20;99.90;;;;;;4439183;32;20095;-68
2023/01/05 03:49:39;;;;;;;0.30;0.30;;;10.20;99.90;;;;;;4442677;32;20184;-68
2023/01/05 03:52:04;;;;;;;5.12;0.50;;;10.20;99.90;;;;;;4443203;32;20081;-68
2023/01/05 03:54:30;;;;;;;1.05;0.95;;;10.30;99.90;;;;;;4442380;32;20093;-68
2023/01/05 03:56:56;;;;;;;0.50;0.50;;;10.30;99.90;;;;;;4443258;32;20108;-68
2023/01/05 03:59:21;;;;;;;0.80;0.80;;;10.20;99.90;;;;;;4440487;32;20088;-68
2023/01/05 04:01:48;;;;;;;0.70;0.65;;;10.30;99.90;;;;;;4442634;32;20064;-67
2023/01/05 04:04:13;;;;;;;0.30;0.30;;;10.30;99.90;;;;;;4443249;32;20092;-67
2023/01/05 04:06:39;;;;;;;0.30;0.30;;;10.30;99.90;;;;;;4445943;32;20175;-68
2023/01/05 04:09:04;;;;;;;1.23;0.80;;;10.30;99.90;;;;;;4443320;32;20068;-68
2023/01/05 04:11:30;;;;;;;0.30;0.30;;;10.30;99.90;;;;;;4432979;32;20593;-67
2023/01/05 04:13:56;;;;;;;0.30;0.30;;;10.30;99.90;;;;;;4429662;32;20069;-68
2023/01/05 04:16:22;;;;;;;0.95;0.47;;;10.30;99.90;;;;;;4445652;32;20092;-68
2023/01/05 04:18:48;;;;;;;1.20;1.10;;;10.20;99.90;;;;;;4447618;32;20879;-67
2023/01/05 04:21:13;;;;;;;0.30;0.30;;;10.10;99.90;;;;;;4450235;32;20069;-67
2023/01/05 04:23:39;;;;;;;0.22;0.22;;;10.10;99.90;;;;;;4449581;32;20097;-68
2023/01/05 04:26:04;;;;;;;1.02;0.77;;;10.10;99.90;;;;;;4442010;32;20429;-68
2023/01/05 04:28:30;;;;;;;0.30;0.30;;;10.10;99.90;;;;;;4441368;32;20105;-68
2023/01/05 04:30:56;;;;;;;0.30;0.30;;;10.10;99.90;;;;;;4444849;32;21085;-67
2023/01/05 04:33:22;;;;;;;0.45;0.45;;;10.10;99.90;;;;;;4446335;32;20121;-67
2023/01/05 04:35:48;;;;;;;0.30;0.30;;;10.10;99.90;;;;;;4443121;32;20508;-68
2023/01/05 04:38:14;;;;;;;0.32;0.32;;;10.10;99.90;;;;;;4446448;32;20101;-67
2023/01/05 04:40:40;;;;;;;0.35;0.35;;;10.20;99.90;;;;;;4441304;32;20093;-67
2023/01/05 04:43:05;;;;;;;0.30;0.30;;;10.20;99.90;;;;;;4431873;32;20568;-67
2023/01/05 04:45:32;;;;;;;0.45;0.43;;;10.10;99.90;;;;;;4438595;32;20072;-68
2023/01/05 04:47:57;;;;;;;0.30;0.30;;;10.00;99.90;;;;;;4444577;32;20070;-67
2023/01/05 04:50:23;;;;;;;0.52;0.40;;;10.00;99.90;;;;;;4450363;32;20064;-68
2023/01/05 04:52:49;;;;;;;0.60;0.60;;;9.90;99.90;;;;;;4447573;32;20085;-68
2023/01/05 04:55:14;;;;;;;0.40;0.40;;;9.80;99.90;;;;;;4445195;32;20571;-68
2023/01/05 04:57:40;;;;;;;2.10;1.58;;;9.70;99.90;;;;;;4444828;32;20073;-68
2023/01/05 05:00:06;;;;;;;0.80;0.55;;;9.60;99.90;;;;;;4443483;32;20098;-69
2023/01/05 05:02:33;;;;;;;1.92;0.52;;;9.50;99.90;;;;;;4442916;32;20092;-68
2023/01/05 05:04:58;;;;;;;0.35;0.35;;;9.50;99.90;;;;;;4442190;32;20106;-67
2023/01/05 05:07:24;;;;;;;1.95;0.77;;;9.50;99.90;;;;;;4444808;32;20101;-68
2023/01/05 05:09:49;;;;;;;10.65;0.88;;;9.50;99.90;;;;;;4444879;32;20563;-67
2023/01/05 05:12:19;;;;;;;0.73;0.50;;;9.50;99.90;;;;;;4427108;32;20131;-67
2023/01/05 05:14:45;;;;;;;0.30;0.30;;;9.50;99.90;;;;;;4430213;32;20088;-69
2023/01/05 05:17:10;;;;;;;1.98;0.65;;;9.50;99.90;;;;;;4444638;32;20113;-68
2023/01/05 05:19:36;;;;;;;2.40;0.80;;;9.40;99.90;;;;;;4442386;32;21437;-68
2023/01/05 05:22:02;;;;;;;0.40;0.40;;;9.40;99.90;;;;;;4430131;32;20451;-67
2023/01/05 05:24:28;;;;;;;0.60;0.60;;;9.40;99.90;;;;;;4408542;32;20072;-65
2023/01/05 05:26:53;;;;;;;0.30;0.30;;;9.40;99.90;;;;;;4410838;32;20378;-67
2023/01/05 05:29:19;;;;;;;0.22;0.22;;;9.40;99.90;;;;;;4406694;32;20196;-67
2023/01/05 05:31:45;;;;;;;0.40;0.40;;;9.40;99.90;;;;;;4412435;32;20069;-67
2023/01/05 05:34:10;;;;;;;0.37;0.37;;;9.50;99.90;;;;;;4406192;32;20527;-67
2023/01/05 05:36:36;;;;;;;0.30;0.30;;;9.50;99.90;;;;;;4414160;32;20073;-67
2023/01/05 05:39:02;;;;;;;0.30;0.30;;;9.50;99.90;;;;;;4445153;32;20077;-68
2023/01/05 05:41:28;;;;;;;0.30;0.30;;;9.50;99.90;;;;;;4433065;32;20069;-66
2023/01/05 05:43:56;;;;;;;2.00;1.65;;;9.50;99.90;;;;;;4429654;32;20104;-68
2023/01/05 05:46:21;;;;;;;2.58;0.75;;;9.60;99.90;;;;;;4443770;32;20203;-67
2023/01/05 05:48:47;;;;;;;0.88;0.50;;;9.50;99.90;;;;;;4444991;32;20723;-68
2023/01/05 05:51:12;;;;;;;0.30;0.30;;;9.60;99.90;;;;;;4444165;32;20111;-68
2023/01/05 05:53:37;;;;;;;0.30;0.30;;;9.60;99.90;;;;;;4405045;32;20573;-67
2023/01/05 05:56:03;;;;;;;0.43;0.43;;;9.60;99.90;;;;;;4412450;32;20168;-66
2023/01/05 05:58:29;;;;;;;2.37;0.73;;;9.60;99.90;;;;;;4438278;32;20559;-67
2023/01/05 06:00:58;;;;;;;0.30;0.30;;;9.60;99.90;;;;;;4439635;32;20081;-67
2023/01/05 06:03:23;;;;;;;0.47;0.47;;;9.60;99.90;;;;;;4421036;32;20321;-67
2023/01/05 06:05:49;;;;;;;0.65;0.60;;;9.60;99.90;;;;;;4415991;32;20153;-68
2023/01/05 06:08:14;;;;;;;1.45;0.65;;;9.50;99.90;;;;;;4404652;32;20224;-67
2023/01/05 06:10:40;;;;;;;12.30;0.65;;;9.50;99.90;;;;;;4399570;32;20085;-67
2023/01/05 06:13:05;;;;;;;0.30;0.30;;;9.50;99.90;;;;;;4391278;32;20088;-67
2023/01/05 06:15:31;;;;;;;0.30;0.30;;;9.60;99.90;;;;;;4402342;32;20663;-66
2023/01/05 06:17:56;;;;;;;0.50;0.50;;;9.60;99.90;;;;;;4386003;32;20194;-66
2023/01/05 06:20:22;;;;;;;0.98;0.62;;;9.50;99.90;;;;;;4359665;32;20505;-66
2023/01/05 06:22:47;;;;;;;1.08;0.70;;;9.50;99.90;;;;;;4363163;32;20080;-66
2023/01/05 06:25:13;;;;;;;2.10;0.80;;;9.60;99.90;;;;;;4337612;32;20175;-67
2023/01/05 06:27:40;;;;;;;9.73;2.05;;;9.60;99.90;;;;;;4374167;32;20207;-67
2023/01/05 06:30:06;;;;;;;0.30;0.30;;;9.50;99.90;;;;;;4331355;32;20308;-67
2023/01/05 06:32:31;;;;;;;0.20;0.20;;;9.50;99.90;;;;;;4337999;32;20139;-67
2023/01/05 06:34:57;;;;;;;0.30;0.30;;;9.50;99.90;;;;;;4354600;32;20555;-65
2023/01/05 06:37:23;;;;;;;0.35;0.35;;;9.50;99.90;;;;;;4367362;32;20278;-66
2023/01/05 06:39:49;;;;;;;0.30;0.30;;;9.50;99.90;;;;;;4360184;32;20410;-66
2023/01/05 06:42:15;;;;;;;1.45;0.60;;;9.50;99.90;;;;;;4356003;32;20587;-65
2023/01/05 06:44:41;;;;;;;0.37;0.37;;;9.40;99.90;;;;;;4375454;32;20143;-66
2023/01/05 06:47:07;;;;;;;0.30;0.30;;;9.40;99.90;;;;;;4379639;32;20097;-66
2023/01/05 06:49:32;;;;;;;0.40;0.40;;;9.40;99.90;;;;;;4384559;32;20258;-66
2023/01/05 06:51:57;;;;;;;0.30;0.30;;;9.40;99.90;;;;;;4383605;32;20105;-67
2023/01/05 06:54:23;;;;;;;0.45;0.45;;;9.40;99.90;;;;;;4392115;32;20227;-66
2023/01/05 06:56:48;;;;;;;0.30;0.30;;;9.30;99.90;;;;;;4389190;32;20271;-66
2023/01/05 06:59:14;;;;;;;0.30;0.30;;;9.30;99.90;;;;;;4400139;26;21306;-74
2023/01/05 07:01:39;;;;;;;0.40;0.40;;;9.30;99.90;;;;;;4356760;32;20244;-74
2023/01/05 07:04:05;;;;;;;0.73;0.73;;;9.30;99.90;;;;;;4351870;32;20130;-74
2023/01/05 07:06:30;;;;;;;0.32;0.32;;;9.20;99.90;;;;;;4349044;32;20256;-74
2023/01/05 07:08:56;;;;;;;0.40;0.40;;;9.20;99.90;;;;;;4362494;32;20619;-74
2023/01/05 07:11:22;;;;;;;0.40;0.40;;;9.20;99.90;;;;;;4341197;32;20610;-74
2023/01/05 07:13:49;;;;;;;0.50;0.50;;;9.20;99.90;;;;;;4349739;32;20090;-74
2023/01/05 07:16:16;;;;;;;0.40;0.40;;;9.20;99.90;;;;;;4364011;32;20725;-74
2023/01/05 07:18:41;;;;;;;0.40;0.40;;;9.10;99.90;;;;;;4359053;32;22458;-73
2023/01/05 07:21:07;;;;;;;0.30;0.30;;;9.20;99.90;;;;;;4344519;32;21775;-74
2023/01/05 07:23:36;;;;;;;2.20;0.95;;;9.20;99.90;;;;;;4360789;32;20596;-74
2023/01/05 07:26:03;;;;;;;0.30;0.30;;;9.20;99.90;;;;;;4363742;32;20086;-73
2023/01/05 07:28:29;;;;;;;0.57;0.57;;;9.20;99.90;;;;;;4355854;32;20082;-75
2023/01/05 07:30:55;;;;;;;0.40;0.40;;;9.10;99.90;;;;;;4338929;32;20902;-74
2023/01/05 07:33:20;;;;;;;0.40;0.40;;;9.10;99.90;;;;;;4325213;32;109338;-74
2023/01/05 07:35:46;;;;;;;0.40;0.40;;;9.20;99.90;;;;;;4338287;32;21201;-74
2023/01/05 07:38:11;;;;;;;0.30;0.30;;;9.20;99.90;;;;;;4351748;32;20139;-77
2023/01/05 07:40:37;;;;;;;0.28;0.28;;;9.30;99.90;;;;;;4354954;32;20592;-75
2023/01/05 07:43:03;;;;;;;0.30;0.30;;;9.30;99.90;;;;;;4341490;32;20564;-75
2023/01/05 07:45:29;;;;;;;0.30;0.30;;;9.30;99.90;;;;;;4352635;32;20113;-75
2023/01/05 07:47:54;;;;;;;0.40;0.40;;;9.20;99.90;;;;;;4352582;32;20188;-75
2023/01/05 07:50:20;;;;;;;0.40;0.40;;;9.20;99.90;;;;;;4338648;32;20105;-75
2023/01/05 07:52:45;;;;;;;0.30;0.30;;;9.20;99.90;;;;;;4328165;32;20178;-75
2023/01/05 07:55:10;;;;;;;0.20;0.20;;;9.10;99.90;;;;;;4346091;32;20721;-74
2023/01/05 07:57:36;;;;;;;0.30;0.30;;;9.10;99.90;;;;;;4352137;32;20716;-75
2023/01/05 08:00:03;;;;;;;0.20;0.20;;;9.10;99.90;;;;;;4331649;32;20110;-74
2023/01/05 08:02:28;;;;;;;0.30;0.30;;;9.10;99.90;;;;;;4325515;32;20898;-75
2023/01/05 08:04:54;;;;;;;0.30;0.30;;;9.10;99.90;;;;;;4331029;32;20186;-75
2023/01/05 08:07:19;;;;;;;0.30;0.30;;;9.10;99.90;;;;;;4346870;32;20903;-74
2023/01/05 08:10:44;;;;;;;0.30;0.30;;;9.00;99.90;;;;;;4353856;32;21688;-77
2023/01/05 08:12:30;;;;;;;0.40;0.40;;;9.00;99.90;;;;;;4338688;32;21049;-76
2023/01/05 08:14:56;;;;;;;0.50;0.50;;;9.00;99.90;;;;;;4353364;32;20837;-76
2023/01/05 08:17:22;;;;;;;0.30;0.30;;;9.00;99.90;;;;;;4351365;32;20422;-76
2023/01/05 08:19:48;;;;;;;0.70;0.70;;;9.10;99.90;;;;;;4340961;32;20669;-75
2023/01/05 08:22:13;;;;;;;0.40;0.40;;;9.10;99.90;;;;;;4343339;32;20450;-76
2023/01/05 08:24:39;;;;;;;0.40;0.40;;;9.10;99.90;;;;;;4358221;32;20656;-73
2023/01/05 08:27:04;;;;;;;0.20;0.20;;;9.10;99.90;;;;;;4357571;32;20839;-73
2023/01/05 08:29:30;;;;;;;0.47;0.47;;;9.20;99.90;;;;;;4348827;32;20116;-73
2023/01/05 08:31:55;;;;;;;0.40;0.40;;;9.30;99.90;;;;;;4319817;32;20153;-72
2023/01/05 08:34:21;;;;;;;0.30;0.30;;;9.30;99.90;;;;;;4316903;32;20126;-73
2023/01/05 08:36:46;;;;;;;1.15;1.05;;;9.30;99.90;;;;;;4343708;32;21743;-72
2023/01/05 08:39:13;;;;;;;0.40;0.40;;;9.40;99.90;;;;;;4359810;32;20097;-75
2023/01/05 08:41:39;;;;;;;0.30;0.30;;;9.40;99.90;;;;;;4358176;32;20479;-71
2023/01/05 08:44:09;;;;;;;0.40;0.40;;;9.40;99.90;;;;;;4372909;32;20336;-73
2023/01/05 08:46:35;;;;;;;0.30;0.30;;;9.30;99.90;;;;;;4368024;32;20111;-74
2023/01/05 08:49:03;;;;;;;0.35;0.35;;;9.40;99.90;;;;;;4349539;32;20545;-74
2023/01/05 08:51:29;;;;;;;0.37;0.35;;;9.50;99.90;;;;;;4329133;32;20130;-74
2023/01/05 08:53:56;;;;;;;0.40;0.40;;;9.50;99.90;;;;;;4331217;32;20101;-76
2023/01/05 08:56:24;;;;;;;0.40;0.40;;;9.60;99.90;;;;;;4353318;32;20357;-75
2023/01/05 08:58:49;;;;;;;0.30;0.30;;;9.60;99.90;;;;;;4352688;32;21668;-76
2023/01/05 09:01:17;;;;;;;0.30;0.30;;;9.60;99.90;;;;;;4310828;32;20165;-76
2023/01/05 09:03:43;;;;;;;0.30;0.30;;;9.60;99.90;;;;;;4306840;32;21647;-75
2023/01/05 09:06:10;;;;;;;0.30;0.30;;;9.60;99.90;;;;;;4317008;32;20644;-74
2023/01/05 09:08:37;;;;;;;0.90;0.50;;;9.60;99.90;;;;;;4332445;32;20376;-73
2023/01/05 09:11:06;;;;;;;0.68;0.68;;;9.60;99.90;;;;;;4333913;32;20106;-74
2023/01/05 09:13:31;;;;;;;0.30;0.30;;;9.60;99.90;;;;;;4333412;32;20493;-74
2023/01/05 09:16:02;;;;;;;0.30;0.30;;;9.60;99.90;;;;;;4338891;32;20205;-74
2023/01/05 09:18:27;;;;;;;0.40;0.40;;;9.70;99.90;;;;;;4322945;32;20344;-74
2023/01/05 09:20:55;;;;;;;0.40;0.40;;;9.70;99.90;;;;;;4317027;32;20118;-74
2023/01/05 09:23:20;;;;;;;0.28;0.28;;;9.80;99.90;;;;;;4318134;32;20852;-74
2023/01/05 09:25:46;;;;;;;0.30;0.30;;;9.90;99.90;;;;;;4326800;32;21277;-72
2023/01/05 09:28:11;;;;;;;0.30;0.30;;;9.80;99.90;;;;;;4329415;32;20090;-74
2023/01/05 09:30:37;;;;;;;0.35;0.35;;;9.90;99.90;;;;;;4301369;32;20288;-74
2023/01/05 09:33:02;;;;;;;0.35;0.35;;;9.90;99.90;;;;;;4300023;32;21725;-73
2023/01/05 09:35:28;;;;;;;0.30;0.30;;;9.90;99.90;;;;;;4310492;32;20110;-71
2023/01/05 09:37:53;;;;;;;0.30;0.30;;;9.90;99.90;;;;;;4321026;32;20085;-73
2023/01/05 09:40:19;;;;;;;0.40;0.40;;;10.00;99.90;;;;;;4335901;32;20348;-73
2023/01/05 09:42:45;;;;;;;0.30;0.30;;;10.00;99.90;;;;;;4335434;32;20112;-75
2023/01/05 09:45:15;;;;;;;0.30;0.30;;;10.00;99.90;;;;;;4324047;32;20114;-73
2023/01/05 09:47:45;;;;;;;0.40;0.40;;;10.10;99.90;;;;;;4330304;32;20123;-75
2023/01/05 09:50:19;;;;;;;2.72;0.95;;;10.10;99.90;;;;;;4319159;32;20091;-73
2023/01/05 09:52:45;;;;;;;0.60;0.60;;;10.00;99.90;;;;;;4327752;32;20184;-73
2023/01/05 09:55:16;;;;;;;1.25;0.52;;;9.90;99.90;;;;;;4331255;32;20454;-75
2023/01/05 09:57:48;;;;;;;0.32;0.32;;;9.90;99.90;;;;;;4342035;32;20102;-74
2023/01/05 10:00:15;;;;;;;0.50;0.50;;;10.00;99.90;;;;;;4333580;32;20913;-73
2023/01/05 10:03:03;;;;;;;0.37;0.37;;;9.90;99.90;;;;;;4336976;32;20874;-73
2023/01/05 10:05:31;;;;;;;0.30;0.30;;;9.80;99.90;;;;;;4311027;32;20128;-72
2023/01/05 10:08:05;;;;;;;0.40;0.40;;;9.80;99.90;;;;;;4344333;32;20105;-72
2023/01/05 10:13:01;;;;;;;0.30;0.30;;;10.00;99.90;;;;;;4348385;32;20455;-74
2023/01/05 10:13:33;;;;;;;0.40;0.40;;;10.00;99.90;;;;;;4327974;32;20514;-73
2023/01/05 10:15:58;;;;;;;0.30;0.30;;;10.00;99.90;;;;;;4340641;32;20119;-72
2023/01/05 10:18:27;;;;;;;0.60;0.60;;;9.90;99.90;;;;;;4345515;32;20565;-72
2023/01/05 10:21:19;;;;;;;0.40;0.40;;;9.90;99.90;;;;;;4324688;32;20381;-72
2023/01/05 10:23:55;;;;;;;0.30;0.30;;;9.80;99.90;;;;;;4315108;32;20274;-73
2023/01/05 10:26:58;;;;;;;0.68;0.68;;;9.80;99.90;;;;;;4332641;32;20870;-72
2023/01/05 10:29:35;;;;;;;0.30;0.30;;;9.80;99.90;;;;;;4341753;32;20724;-71
2023/01/05 10:32:08;;;;;;;0.40;0.40;;;9.80;99.90;;;;;;4328405;32;20348;-70
2023/01/05 10:35:04;;;;;;;0.30;0.30;;;9.90;99.90;;;;;;4332309;32;20133;-71
2023/01/05 10:37:59;;;;;;;0.40;0.40;;;9.90;99.90;;;;;;4352544;32;20132;-72
2023/01/05 10:41:04;;;;;;;0.30;0.30;;;9.80;99.90;;;;;;4342668;32;20105;-71
2023/01/05 10:43:40;;;;;;;2.50;0.70;;;9.80;99.90;;;;;;4327503;32;20110;-74
2023/01/05 10:46:10;;;;;;;0.40;0.40;;;9.80;99.90;;;;;;4362665;32;20093;-71
2023/01/05 10:48:36;;;;;;;0.30;0.30;;;9.70;99.90;;;;;;4357862;32;21034;-72
2023/01/05 10:51:03;;;;;;;0.47;0.47;;;9.70;99.90;;;;;;4341361;32;20312;-72
2023/01/05 10:53:32;;;;;;;0.43;0.43;;;9.80;99.90;;;;;;4348843;32;20796;-72
2023/01/05 10:56:04;;;;;;;0.30;0.30;;;9.80;99.90;;;;;;4356910;32;20097;-72
2023/01/05 10:58:33;;;;;;;0.30;0.30;;;9.70;99.90;;;;;;4362765;32;20218;-72
2023/01/05 11:01:03;;;;;;;0.40;0.40;;;9.70;99.90;;;;;;4332348;32;20154;-72
2023/01/05 11:03:35;;;;;;;1.33;1.23;;;9.70;99.90;;;;;;4330351;32;20419;-72
2023/01/05 11:06:02;;;;;;;0.40;0.40;;;9.70;99.90;;;;;;4336177;32;20601;-73
2023/01/05 11:08:29;;;;;;;0.30;0.30;;;9.70;99.90;;;;;;4335196;32;20093;-73
2023/01/05 11:11:04;;;;;;;0.40;0.40;;;9.60;99.90;;;;;;4339081;32;20098;-73
2023/01/05 11:13:41;;;;;;;0.40;0.40;;;9.70;99.90;;;;;;4337573;32;20087;-72
2023/01/05 11:16:13;;;;;;;0.52;0.52;;;9.70;99.90;;;;;;4338428;32;20967;-72
2023/01/05 11:18:48;;;;;;;0.20;0.20;;;9.70;99.90;;;;;;4318729;32;20694;-73
2023/01/05 11:21:17;;;;;;;0.30;0.30;;;9.70;99.90;;;;;;4324318;32;20292;-73
2023/01/05 11:23:45;;;;;;;0.30;0.30;;;9.70;99.90;;;;;;4329169;32;20277;-73
2023/01/05 11:26:19;;;;;;;0.30;0.30;;;9.70;99.90;;;;;;4353458;32;20175;-72
2023/01/05 11:29:10;;;;;;;0.37;0.37;;;9.70;99.90;;;;;;4350319;32;20418;-72
2023/01/05 11:31:43;;;;;;;0.40;0.40;;;9.70;99.90;;;;;;4325654;32;20098;-71
2023/01/05 11:34:34;;;;;;;0.30;0.30;;;9.70;99.90;;;;;;4334469;32;20391;-72
2023/01/05 11:37:20;;;;;;;0.30;0.30;;;9.70;99.90;;;;;;4337187;32;20145;-72
2023/01/05 11:39:50;;;;;;;0.50;0.50;;;9.70;99.90;;;;;;4356891;32;20534;-72
2023/01/05 11:42:26;;;;;;;0.30;0.30;;;9.70;99.90;;;;;;4354143;32;20539;-73
2023/01/05 11:44:58;;;;;;;0.30;0.30;;;9.80;99.90;;;;;;4354047;32;20131;-73
2023/01/05 11:47:30;;;;;;;0.30;0.30;;;9.70;99.90;;;;;;4347059;32;20173;-72
2023/01/05 11:49:59;;;;;;;0.95;0.77;;;9.90;99.90;;;;;;4336012;32;20209;-73
2023/01/05 11:52:31;;;;;;;0.37;0.37;;;9.90;99.90;;;;;;4324530;32;20118;-74
2023/01/05 11:54:56;;;;;;;15.75;0.62;;;10.00;99.90;;;;;;4320116;32;21157;-73
2023/01/05 11:57:22;;;;;;;0.30;0.30;;;10.10;99.90;;;;;;4326892;32;20126;-73
2023/01/05 11:59:49;;;;;;;0.40;0.40;;;10.10;99.90;;;;;;4320087;32;21365;-74
2023/01/05 12:02:39;;;;;;;0.30;0.30;;;10.00;99.90;;;;;;4325993;32;20448;-73
2023/01/05 12:05:26;;;;;;;0.30;0.30;;;10.00;99.90;;;;;;4305811;32;20102;-72
2023/01/05 12:08:15;;;;;;;0.30;0.30;;;9.90;99.90;;;;;;4323219;32;20915;-73
2023/01/05 12:11:08;;;;;;;0.50;0.50;;;10.00;99.90;;;;;;4332301;32;20126;-73
2023/01/05 12:14:01;;;;;;;0.50;0.50;;;10.00;99.90;;;;;;4319497;32;21608;-73
2023/01/05 12:16:37;;;;;;;0.35;0.35;;;10.00;99.90;;;;;;4321042;32;20110;-73
2023/01/05 12:19:11;;;;;;;0.40;0.40;;;10.00;99.90;;;;;;4328092;32;20763;-74
2023/01/05 12:21:44;;;;;;;0.40;0.40;;;9.90;99.90;;;;;;4318572;32;20431;-74
2023/01/05 12:24:26;;;;;;;0.40;0.40;;;9.90;99.90;;;;;;4331892;32;20500;-73
2023/01/05 12:27:16;;;;;;;0.40;0.40;;;9.90;99.90;;;;;;4338123;32;20410;-73
2023/01/05 12:30:03;;;;;;;0.60;0.60;;;9.80;99.90;;;;;;4334194;32;21126;-73
2023/01/05 12:32:38;;;;;;;0.30;0.30;;;9.80;99.90;;;;;;4314642;32;20098;-73
2023/01/05 12:35:41;;;;;;;0.30;0.30;;;9.80;99.90;;;;;;4327156;32;20210;-74
2023/01/05 12:38:22;;;;;;;1.15;0.40;;;9.90;99.90;;;;;;4321751;32;20178;-73
2023/01/05 12:41:10;;;;;;;0.62;0.60;;;9.80;99.90;;;;;;4330643;32;20153;-73
2023/01/05 12:44:16;;;;;;;0.73;0.47;;;9.80;99.90;;;;;;4301558;32;21326;-74
2023/01/05 12:47:12;;;;;;;0.50;0.50;;;9.80;99.90;;;;;;4325998;32;20765;-72
2023/01/05 12:49:45;;;;;;;0.50;0.50;;;9.80;99.90;;;;;;4321518;32;20309;-73
2023/01/05 12:52:27;;;;;;;0.32;0.32;;;10.00;99.90;;;;;;4342409;32;20986;-73
2023/01/05 12:55:19;;;;;;;17.77;1.65;;;10.00;99.90;;;;;;4352643;32;20113;-73
2023/01/05 12:57:50;;;;;;;0.30;0.30;;;10.00;99.90;;;;;;4345470;32;20098;-73
2023/01/05 13:00:18;;;;;;;0.30;0.30;;;10.30;99.90;;;;;;4346088;32;20742;-72
2023/01/05 13:02:59;;;;;;;0.68;0.68;;;10.40;99.90;;;;;;4355736;32;20519;-72
2023/01/05 13:05:29;;;;;;;0.82;0.70;;;10.30;99.90;;;;;;4350820;32;20257;-72
2023/01/05 13:08:06;;;;;;;0.47;0.47;;;10.10;99.90;;;;;;4366083;32;20482;-73
2023/01/05 13:10:53;;;;;;;0.30;0.30;;;10.10;99.90;;;;;;4365639;32;20646;-72
2023/01/05 13:13:23;;;;;;;0.40;0.40;;;10.00;99.90;;;;;;4352273;32;20118;-72
2023/01/05 13:15:52;;;;;;;0.40;0.40;;;9.90;99.90;;;;;;4349851;32;20227;-72
2023/01/05 13:18:18;;;;;;;0.30;0.30;;;9.80;99.90;;;;;;4355989;32;20301;-72
2023/01/05 13:20:52;;;;;;;0.30;0.30;;;9.70;99.90;;;;;;4343747;32;20101;-72
2023/01/05 13:23:27;;;;;;;0.30;0.30;;;9.70;99.90;;;;;;4343456;32;20169;-72
2023/01/05 13:26:00;;;;;;;2.45;0.75;;;9.70;99.90;;;;;;4345448;32;20699;-73
2023/01/05 13:28:25;;;;;;;0.93;0.50;;;9.70;99.90;;;;;;4350286;32;20449;-73
2023/01/05 13:31:02;;;;;;;0.40;0.40;;;9.60;99.90;;;;;;4337509;32;20277;-73
2023/01/05 13:33:42;;;;;;;0.40;0.40;;;9.60;99.90;;;;;;4341119;32;20303;-73